Flight Track Log - Related Links

Times and Time Zones

All times are in EST time to prevent confusion due to time zone crossing. See the N589H flight status page for this flight to view local times or setup timezone preferences in your user account.

Time Position Orientation Groundspeed Altitude Reporting Facility
EST Latitude Longitude Course Direction KTS MPH feet Rate Location/Type
Thu 05:50:12 PM 39.4044 -83.8286 175° South 148 170 2,900  Level Indianapolis Center
Thu 05:50:48 PM 39.3767 -83.8347 190° South 177 204 4,300 1,899 Climbing Indianapolis Center
Thu 05:51:31 PM 39.3394 -83.8283 172° South 187 215 5,400 1,500 Climbing Indianapolis Center
Thu 05:51:32 PM 39.3422 -83.8294 343° North 175 201 5,400 1,333 Level Indianapolis Center
Thu 05:52:34 PM 39.2861 -83.8228 175° South 188 216 6,800 1,355 Climbing Indianapolis Center
Thu 05:53:36 PM 39.2242 -83.8136 173° South 215 247 8,200 1,306 Climbing Indianapolis Center
Thu 05:54:38 PM 39.1600 -83.8072 176° South 229 264 9,500 1,296 Climbing Indianapolis Center
Thu 05:55:00 PM 38.6019 -83.7019 175° South  Level Estimated
Thu 05:55:41 PM 39.0917 -83.7994 175° South 244 281 10,900  Level Indianapolis Center
Thu 05:56:43 PM 39.0089 -83.7894 175° South 250 288 12,500 1,548 Climbing Indianapolis Center
Thu 05:57:45 PM 38.9383 -83.7808 175° South 253 291 14,100 1,597 Climbing Indianapolis Center
Thu 05:58:47 PM 38.8719 -83.7731 175° South 243 280 15,800 1,674 Climbing Indianapolis Center
Thu 05:59:11 PM 38.8464 -83.7706 176° South 237 273 16,500 1,814 Climbing Indianapolis Center
Thu 06:00:13 PM 38.7817 -83.7650 176° South 234 269 18,400 1,790 Climbing Indianapolis Center
Thu 06:01:15 PM 38.7192 -83.7572 174° South 228 262 20,200 1,790 Climbing Indianapolis Center
Thu 06:02:17 PM 38.6456 -83.7494 175° South 231 266 22,100 1,790 Climbing Indianapolis Center
Thu 06:03:19 PM 38.5806 -83.7406 174° South 234 269 23,900 1,742 Climbing Indianapolis Center
Thu 06:04:21 PM 38.5169 -83.7333 175° South 231 266 25,700 1,824 Climbing Indianapolis Center
Thu 06:05:24 PM 38.4497 -83.7272 176° South 214 246 27,700 1,728 Climbing Indianapolis Center
Thu 06:06:26 PM 38.3950 -83.7203 174° South 199 229 29,300 1,355 Climbing Indianapolis Center
Thu 06:07:28 PM 38.3381 -83.7136 175° South 204 235 30,500 919 Climbing Indianapolis Center
Thu 06:08:30 PM 38.2739 -83.7075 176° South 228 262 31,200 677 Climbing Indianapolis Center
Thu 06:09:32 PM 38.2042 -83.6994 175° South 248 285 31,900 387 Climbing Indianapolis Center
Thu 06:10:34 PM 38.1153 -83.6892 175° South 272 313 32,000 48 Climbing Indianapolis Center
Thu 06:11:36 PM 38.0319 -83.6808 175° South 295 339 32,000  Level Indianapolis Center
Thu 06:12:38 PM 37.9458 -83.6708 175° South 307 353 32,000  Level Indianapolis Center
Thu 06:13:40 PM 37.8578 -83.6617 175° South 315 362 32,000  Level Indianapolis Center
Thu 06:14:42 PM 37.7694 -83.6519 175° South 318 366 32,000  Level Indianapolis Center
Thu 06:15:44 PM 37.6794 -83.6403 174° South 322 371 32,000  Level Indianapolis Center
Thu 06:16:47 PM 37.5753 -83.6311 176° South 323 372 32,000  Level Indianapolis Center
Thu 06:17:49 PM 37.4864 -83.6206 175° South 320 368 32,000 194 Level Indianapolis Center
Thu 06:18:51 PM 37.3969 -83.6106 175° South 321 369 32,400 484 Climbing Indianapolis Center
Thu 06:19:53 PM 37.3147 -83.6019 175° South 300 345 33,000 290 Climbing Indianapolis Center
Thu 06:20:55 PM 37.2319 -83.5933 175° South 297 342 33,000  Level Indianapolis Center
Thu 06:21:57 PM 37.1339 -83.5819 175° South 301 346 33,000  Level Indianapolis Center
Thu 06:22:59 PM 37.0489 -83.5736 176° South 306 352 33,000  Level Indianapolis Center
Thu 06:24:01 PM 36.9631 -83.5644 175° South 309 356 33,000  Level Indianapolis Center
Thu 06:25:03 PM 36.8769 -83.5542 175° South 310 357 33,000  Level Indianapolis Center
Thu 06:26:05 PM 36.7906 -83.5456 175° South 311 358 33,000  Level Indianapolis Center
Thu 06:27:07 PM 36.6897 -83.5353 175° South 312 359 33,000  Level Indianapolis Center
Thu 06:28:09 PM 36.6033 -83.5272 176° South 313 360 33,000  Level Indianapolis Center
Thu 06:29:11 PM 36.5161 -83.5169 175° South 314 361 33,000  Level Indianapolis Center
Thu 06:30:13 PM 36.4308 -83.5083 175° South 311 358 33,000  Level Indianapolis Center
Thu 06:31:15 PM 36.3306 -83.4978 175° South 310 357 33,000  Level Indianapolis Center
Thu 06:32:17 PM 36.2444 -83.4886 175° South 310 357 33,000  Level Indianapolis Center
Thu 06:33:20 PM 36.1578 -83.4792 175° South 311 358 33,000  Level Indianapolis Center
Thu 06:34:22 PM 36.0714 -83.4711 176° South 311 358 33,000  Level Indianapolis Center
Thu 06:35:24 PM 35.9839 -83.4614 175° South 313 360 33,000  Level Indianapolis Center
Thu 06:36:26 PM 35.8956 -83.4528 175° South 316 364 33,000  Level Indianapolis Center
Thu 06:37:28 PM 35.7922 -83.4408 175° South 319 367 33,000  Level Indianapolis Center
Thu 06:38:39 PM 35.6939 -83.4353 177° South 313 360 33,000  Level Atlanta Center
Thu 06:39:39 PM 35.6061 -83.4231 174° South 318 366 33,000  Level Atlanta Center
Thu 06:40:39 PM 35.5164 -83.4161 176° South 318 366 33,000  Level Atlanta Center
Thu 06:41:39 PM 35.4286 -83.4067 175° South 323 372 33,000  Level Atlanta Center
Thu 06:42:39 PM 35.3411 -83.3972 175° South 323 372 33,000  Level Atlanta Center
Thu 06:43:39 PM 35.2472 -83.3878 175° South 328 377 33,000  Level Atlanta Center
Thu 06:44:39 PM 35.1489 -83.3758 174° South 328 377 33,000  Level Atlanta Center
Thu 06:45:39 PM 35.0572 -83.3664 175° South 328 377 33,000  Level Atlanta Center
Thu 06:46:39 PM 34.9672 -83.3569 175° South 328 377 33,000  Level Atlanta Center
Thu 06:47:39 PM 34.8797 -83.3450 174° South 328 377 33,000  Level Atlanta Center
Thu 06:48:39 PM 34.7878 -83.3383 177° South 333 383 33,000  Level Atlanta Center
Thu 06:49:39 PM 34.6917 -83.3289 175° South 333 383 33,000  Level Atlanta Center
Thu 06:50:39 PM 34.5997 -83.3169 174° South 333 383 33,000  Level Atlanta Center
Thu 06:51:39 PM 34.5100 -83.3078 175° South 333 383 33,000  Level Atlanta Center
Thu 06:52:39 PM 34.4139 -83.2986 176° South 333 383 33,000  Level Atlanta Center
Thu 06:53:39 PM 34.3242 -83.2917 176° South 333 383 33,000  Level Atlanta Center
Thu 06:54:39 PM 34.2406 -83.2850 176° South 333 383 33,000  Level Atlanta Center
Thu 06:55:39 PM 34.1467 -83.2758 175° South 328 377 33,000  Level Atlanta Center
Thu 06:56:39 PM 34.0547 -83.2667 175° South 338 389 33,000  Level Atlanta Center
Thu 06:57:39 PM 33.9628 -83.2572 175° South 333 383 33,000  Level Atlanta Center
Thu 06:58:39 PM 33.8711 -83.2483 175° South 333 383 33,000  Level Atlanta Center
Thu 06:59:39 PM 33.7667 -83.2392 176° South 333 383 33,000  Level Atlanta Center
Thu 07:00:39 PM 33.6747 -83.2300 175° South 333 383 33,000  Level Atlanta Center
Thu 07:01:39 PM 33.5786 -83.2186 174° South 338 389 33,000  Level Atlanta Center
Thu 07:02:39 PM 33.4867 -83.2094 175° South 338 389 33,000  Level Atlanta Center
Thu 07:03:39 PM 33.3928 -83.2003 175° South 343 395 33,000  Level Atlanta Center
Thu 07:04:39 PM 33.2967 -83.1914 176° South 348 400 33,000  Level Atlanta Center
Thu 07:05:39 PM 33.2025 -83.1822 175° South 348 400 33,000  Level Atlanta Center
Thu 07:06:39 PM 33.1108 -83.1733 175° South 343 395 33,000  Level Atlanta Center
Thu 07:07:39 PM 33.0272 -83.1617 173° South 343 395 33,000  Level Atlanta Center
Thu 07:08:39 PM 32.9311 -83.1528 176° South 343 395 33,000  Level Atlanta Center
Thu 07:09:39 PM 32.8392 -83.1439 175° South 343 395 33,000 -400 Level Atlanta Center
Thu 07:10:39 PM 32.7328 -83.1375 177° South 348 400 32,200 -500 Descending Atlanta Center
Thu 07:11:39 PM 32.6344 -83.1261 174° South 353 406 32,000 -67 Descending Atlanta Center
Thu 07:13:39 PM 32.4528 -83.1083 175° South 348 400 32,000  Level Atlanta Center
Thu 07:15:45 PM 32.2542 -83.0867 175° South 351 404 32,000  Level Jacksonville Center
Thu 07:16:45 PM 32.1497 -83.0767 175° South 346 398 32,000  Level Jacksonville Center
Thu 07:17:45 PM 32.0558 -83.0692 176° South 346 398 32,000  Level Jacksonville Center
Thu 07:18:46 PM 31.9619 -83.0592 175° South 346 398 32,000  Level Jacksonville Center
Thu 07:19:45 PM 31.8700 -83.0517 176° South 346 398 32,000  Level Jacksonville Center
Thu 07:20:45 PM 31.7739 -83.0417 175° South 346 398 32,000  Level Jacksonville Center
Thu 07:21:46 PM 31.6800 -83.0317 175° South 346 398 32,000  Level Jacksonville Center
Thu 07:22:45 PM 31.5819 -83.0242 176° South 346 398 32,000  Level Jacksonville Center
Thu 07:23:46 PM 31.4878 -83.0167 176° South 351 404 32,000  Level Jacksonville Center
Thu 07:24:46 PM 31.3939 -83.0044 174° South 346 398 32,000  Level Jacksonville Center
Thu 07:25:45 PM 31.2981 -82.9972 176° South 346 398 32,000  Level Jacksonville Center
Thu 07:26:45 PM 31.1997 -82.9872 175° South 346 398 32,000  Level Jacksonville Center
Thu 07:27:45 PM 31.1081 -82.9775 175° South 346 398 32,000  Level Jacksonville Center
Thu 07:28:46 PM 31.0097 -82.9700 176° South 351 404 32,000  Level Jacksonville Center
Thu 07:29:45 PM 30.9139 -82.9628 176° South 346 398 32,000  Level Jacksonville Center
Thu 07:30:45 PM 30.8364 -82.9506 172° South 351 404 32,000  Level Jacksonville Center
Thu 07:31:46 PM 30.7175 -82.9458 178° South 351 404 32,000  Level Jacksonville Center
Thu 07:32:46 PM 30.6236 -82.9361 175° South 351 404 32,000 -50 Level Jacksonville Center
Thu 07:33:45 PM 30.5294 -82.9239 174° South 351 404 31,900 -555 Descending Jacksonville Center
Thu 07:34:45 PM 30.4272 -82.9142 175° South 351 404 30,900 -992 Descending Jacksonville Center
Thu 07:35:46 PM 30.3269 -82.9047 175° South 357 411 29,900 -992 Descending Jacksonville Center
Thu 07:36:46 PM 30.2269 -82.8950 175° South 367 422 28,900 -908 Descending Jacksonville Center
Thu 07:37:45 PM 30.1350 -82.8853 175° South 367 422 28,100 -850 Descending Jacksonville Center
Thu 07:38:46 PM 30.0328 -82.8781 176° South 367 422 27,200 -1,091 Descending Jacksonville Center
Thu 07:39:46 PM 29.9261 -82.8686 176° South 367 422 25,900 -1,350 Descending Jacksonville Center
Thu 07:40:46 PM 29.8281 -82.8592 175° South 367 422 24,500 -1,350 Descending Jacksonville Center
Thu 07:41:46 PM 29.7278 -82.8519 176° South 367 422 23,200 -1,300 Descending Jacksonville Center
Thu 07:42:46 PM 29.6319 -82.8447 176° South 367 422 21,900 -1,200 Descending Jacksonville Center
Thu 07:43:46 PM 29.5358 -82.8328 174° South 361 415 20,800 -1,100 Descending Jacksonville Center
Thu 07:44:46 PM 29.4378 -82.8233 175° South 361 415 19,700 -1,160 Descending Jacksonville Center
Thu 07:45:45 PM 29.3458 -82.8164 176° South 348 400 18,500 -1,059 Descending Jacksonville Center
Thu 07:46:45 PM 29.2539 -82.8069 175° South 341 392 17,600 -992 Descending Jacksonville Center
Thu 07:47:46 PM 29.1642 -82.7997 176° South 335 386 16,500 -1,100 Descending Jacksonville Center
Thu 07:48:45 PM 29.0764 -82.7928 176° South 329 379 15,400 -1,100 Descending Jacksonville Center
Thu 07:49:46 PM 28.9889 -82.7833 175° South 324 373 14,300 -1,100 Descending Jacksonville Center
Thu 07:50:45 PM 28.9053 -82.7764 176° South 318 366 13,200 -394 Descending Jacksonville Center
Thu 07:53:04 PM 28.7000 -82.7500 174° South 302 348 13,000 -151 Descending Tampa TRACON
Thu 07:54:04 PM 28.6167 -82.7500 180° South 305 351 12,700 -850 Descending Tampa TRACON
Thu 07:55:04 PM 28.5333 -82.7500 180° South 304 350 11,300 -1,550 Descending Tampa TRACON
Thu 07:56:04 PM 28.4500 -82.7333 170° South 294 338 9,600 -1,900 Descending Tampa TRACON
Thu 07:57:04 PM 28.3667 -82.7333 180° South 286 329 7,500 -2,100 Descending Tampa TRACON
Thu 07:58:04 PM 28.2833 -82.7167 170° South 286 329 5,400 -1,667 Descending Tampa TRACON
Thu 07:59:10 PM 28.2000 -82.7167 180° South 265 305 4,000 -700 Descending Tampa TRACON
Thu 08:00:04 PM 28.1500 -82.7167 180° South 228 262 4,000 -111 Level Tampa TRACON
Thu 08:00:58 PM 28.1000 -82.7333 196° South 185 213 3,800 -526 Descending Tampa TRACON
Thu 08:01:58 PM 28.0500 -82.7500 196° South 198 228 3,000 -400 Descending Tampa TRACON
Thu 08:02:58 PM 28.0000 -82.7833 210° Southwest 182 209 3,000  Level Tampa TRACON
Thu 08:03:59 PM 27.9500 -82.7667 164° South 196 226 3,000  Level Tampa TRACON
Thu 08:04:59 PM 27.9000 -82.7500 164° South 203 234 3,000 -190 Level Tampa TRACON
Thu 08:06:05 PM 27.8500 -82.7333 164° South 177 204 2,600 -350 Descending Tampa TRACON
Thu 08:06:59 PM 27.8167 -82.7000 139° Southeast 211 243 2,300 -500 Descending Tampa TRACON
Thu 08:07:53 PM 27.8333 -82.6833 41° Northeast 167 192 1,700 -850 Descending Tampa TRACON
Thu 08:08:59 PM 27.8833 -82.6833 360° North 127 146 600 -1,000 Descending Tampa TRACON

Login

Don't have an account? Register now (free) for customized features, flight alerts, and more!